createdAt,value
2022-08-20T00:00:42.916Z,1012.81
2022-08-20T00:01:43.325Z,1012.86
2022-08-20T00:02:43.649Z,1012.80
2022-08-20T00:03:44.553Z,1012.82
2022-08-20T00:04:44.394Z,1012.82
2022-08-20T00:05:44.749Z,1012.81
2022-08-20T00:06:45.129Z,1012.81
2022-08-20T00:07:45.495Z,1012.77
2022-08-20T00:08:45.859Z,1012.75
2022-08-20T00:09:46.202Z,1012.81
2022-08-20T00:10:47.660Z,1012.76
2022-08-20T00:11:46.957Z,1012.70
2022-08-20T00:12:47.301Z,1012.72
2022-08-20T00:13:47.660Z,1012.68
2022-08-20T00:14:48.006Z,1012.76
2022-08-20T00:15:48.383Z,1012.73
2022-08-20T00:16:48.756Z,1012.71
2022-08-20T00:17:49.103Z,1012.72
2022-08-20T00:18:49.451Z,1012.69
2022-08-20T00:19:49.808Z,1012.68
2022-08-20T00:20:50.171Z,1012.68
2022-08-20T00:21:50.565Z,1012.69
2022-08-20T00:22:50.913Z,1012.68
2022-08-20T00:23:51.267Z,1012.72
2022-08-20T00:24:51.622Z,1012.73
2022-08-20T00:25:51.971Z,1012.71
2022-08-20T00:26:52.761Z,1012.73
2022-08-20T00:27:52.712Z,1012.75
2022-08-20T00:28:53.074Z,1012.73
2022-08-20T00:29:53.479Z,1012.76
2022-08-20T00:30:53.792Z,1012.73
2022-08-20T00:31:54.162Z,1012.74
2022-08-20T00:32:54.514Z,1012.74
2022-08-20T00:33:54.872Z,1012.72
2022-08-20T00:34:55.248Z,1012.74
2022-08-20T00:35:55.594Z,1012.76
2022-08-20T00:36:55.960Z,1012.78
2022-08-20T00:38:00.371Z,1012.77
2022-08-20T00:38:56.690Z,1012.80
2022-08-20T00:39:57.073Z,1012.81
2022-08-20T00:40:57.426Z,1012.78
2022-08-20T00:41:57.837Z,1012.81
2022-08-20T00:42:58.131Z,1012.85
2022-08-20T00:43:58.490Z,1012.82
2022-08-20T00:44:58.853Z,1012.81
2022-08-20T00:45:59.221Z,1012.81
2022-08-20T00:46:59.634Z,1012.81
2022-08-20T00:47:59.952Z,1012.81
2022-08-20T00:49:02.274Z,1012.80
2022-08-20T00:50:00.677Z,1012.76
2022-08-20T00:51:01.027Z,1012.77
2022-08-20T00:52:01.406Z,1012.76
2022-08-20T00:53:01.722Z,1012.74
2022-08-20T00:54:02.083Z,1012.73
2022-08-20T00:55:02.438Z,1012.75
2022-08-20T00:56:02.789Z,1012.77
2022-08-20T00:57:03.175Z,1012.76
2022-08-20T00:58:04.017Z,1012.75
2022-08-20T00:59:03.913Z,1012.77
2022-08-20T01:00:04.278Z,1012.73
2022-08-20T01:01:04.646Z,1012.76
2022-08-20T01:02:05.098Z,1012.72
2022-08-20T01:03:05.377Z,1012.74
2022-08-20T01:04:05.747Z,1012.74
2022-08-20T01:05:06.120Z,1012.76
2022-08-20T01:06:06.584Z,1012.76
2022-08-20T01:07:06.836Z,1012.79
2022-08-20T01:08:07.189Z,1012.80
2022-08-20T01:09:07.535Z,1012.81
2022-08-20T01:10:07.896Z,1012.83
2022-08-20T01:11:08.251Z,1012.80
2022-08-20T01:12:08.628Z,1012.80
2022-08-20T01:13:08.974Z,1012.79
2022-08-20T01:14:09.340Z,1012.85
2022-08-20T01:15:09.686Z,1012.83
2022-08-20T01:16:10.047Z,1012.82
2022-08-20T01:17:10.412Z,1012.80
2022-08-20T01:18:10.752Z,1012.81
2022-08-20T01:19:30.024Z,1012.82
2022-08-20T01:20:11.492Z,1012.85
2022-08-20T01:21:11.849Z,1012.82
2022-08-20T01:22:12.238Z,1012.80
2022-08-20T01:23:12.551Z,1012.85
2022-08-20T01:24:12.904Z,1012.80
2022-08-20T01:25:13.307Z,1012.82
2022-08-20T01:26:13.621Z,1012.82
2022-08-20T01:27:13.998Z,1012.85
2022-08-20T01:28:14.361Z,1012.84
2022-08-20T01:29:14.743Z,1012.91
2022-08-20T01:30:15.094Z,1012.92
2022-08-20T01:31:15.447Z,1012.90
2022-08-20T01:32:15.822Z,1012.95
2022-08-20T01:33:16.160Z,1012.91
2022-08-20T01:34:16.510Z,1012.92
2022-08-20T01:35:16.877Z,1012.93
2022-08-20T01:36:17.235Z,1012.95
2022-08-20T01:37:17.615Z,1012.95
2022-08-20T01:38:17.962Z,1012.95
2022-08-20T01:39:18.330Z,1012.94
2022-08-20T01:40:18.688Z,1012.93
2022-08-20T01:41:19.050Z,1012.88
2022-08-20T01:42:19.426Z,1012.90
2022-08-20T01:43:19.781Z,1012.92
2022-08-20T01:44:20.141Z,1012.93
2022-08-20T01:45:20.505Z,1012.93
2022-08-20T01:46:20.869Z,1012.94
2022-08-20T01:47:21.235Z,1012.94
2022-08-20T01:48:21.579Z,1012.91
2022-08-20T01:49:23.162Z,1013.00
2022-08-20T01:50:22.297Z,1012.94
2022-08-20T01:51:22.648Z,1012.98
2022-08-20T01:52:23.037Z,1012.97
2022-08-20T01:53:23.367Z,1012.92
2022-08-20T01:54:23.736Z,1012.94
2022-08-20T01:55:24.069Z,1012.91
2022-08-20T01:56:24.420Z,1012.94
2022-08-20T01:57:24.803Z,1012.95
2022-08-20T01:58:25.146Z,1012.95
2022-08-20T01:59:25.520Z,1012.94
2022-08-20T02:00:25.877Z,1012.95
2022-08-20T02:01:26.303Z,1012.95
2022-08-20T02:02:26.613Z,1012.93
2022-08-20T02:03:26.979Z,1012.92
2022-08-20T02:04:27.328Z,1012.93
2022-08-20T02:05:30.340Z,1012.93
2022-08-20T02:06:28.062Z,1012.92
2022-08-20T02:07:28.451Z,1012.96
2022-08-20T02:08:28.775Z,1012.97
2022-08-20T02:09:29.173Z,1012.94
2022-08-20T02:10:31.749Z,1012.93
2022-08-20T02:11:29.901Z,1012.94
2022-08-20T02:12:30.295Z,1012.92
2022-08-20T02:13:30.612Z,1012.94
2022-08-20T02:14:30.995Z,1012.94
2022-08-20T02:15:37.479Z,1012.94
2022-08-20T02:16:31.712Z,1012.96
2022-08-20T02:17:32.115Z,1012.97
2022-08-20T02:18:32.455Z,1013.06
2022-08-20T02:19:32.827Z,1013.02
2022-08-20T02:20:33.178Z,1013.00
2022-08-20T02:21:33.545Z,1013.04
2022-08-20T02:22:33.961Z,1012.97
2022-08-20T02:23:34.265Z,1012.99
2022-08-20T02:24:34.637Z,1012.98
2022-08-20T02:25:35.052Z,1012.94
2022-08-20T02:26:35.337Z,1012.97
2022-08-20T02:27:35.719Z,1012.92
2022-08-20T02:28:36.072Z,1012.92
2022-08-20T02:29:36.433Z,1012.91
2022-08-20T02:30:36.785Z,1012.87
2022-08-20T02:31:37.173Z,1012.92
2022-08-20T02:32:37.547Z,1012.90
2022-08-20T02:33:37.895Z,1012.93
2022-08-20T02:34:38.360Z,1012.91
2022-08-20T02:35:38.625Z,1012.92
2022-08-20T02:36:38.990Z,1012.91
2022-08-20T02:37:39.341Z,1012.87
2022-08-20T02:38:39.712Z,1012.91
2022-08-20T02:39:40.111Z,1012.95
2022-08-20T02:40:40.462Z,1012.93
2022-08-20T02:41:40.766Z,1012.93
2022-08-20T02:42:41.187Z,1012.99
2022-08-20T02:43:41.516Z,1012.99
2022-08-20T02:44:41.856Z,1012.94
2022-08-20T02:45:42.221Z,1012.98
2022-08-20T02:46:42.577Z,1012.96
2022-08-20T02:47:42.971Z,1012.98
2022-08-20T02:48:43.324Z,1012.97
2022-08-20T02:49:43.682Z,1012.97
2022-08-20T02:50:44.031Z,1013.00
2022-08-20T02:51:44.389Z,1012.96
2022-08-20T02:52:47.210Z,1012.98
2022-08-20T02:53:45.127Z,1013.01
2022-08-20T02:54:45.477Z,1013.01
2022-08-20T02:55:45.831Z,1012.99
2022-08-20T02:57:48.787Z,1012.97
2022-08-20T02:58:50.122Z,1013.01
2022-08-20T02:59:50.498Z,1012.98
2022-08-20T03:00:52.550Z,1013.03
2022-08-20T03:02:00.577Z,1012.99
2022-08-20T03:02:51.645Z,1013.02
2022-08-20T03:03:51.933Z,1012.95
2022-08-20T03:04:52.283Z,1013.00
2022-08-20T03:05:52.641Z,1013.01
2022-08-20T03:06:53.003Z,1013.00
2022-08-20T03:07:53.366Z,1013.01
2022-08-20T03:08:53.716Z,1012.97
2022-08-20T03:09:54.102Z,1012.92
2022-08-20T03:10:54.466Z,1012.90
2022-08-20T03:11:54.819Z,1012.91
2022-08-20T03:12:55.214Z,1012.96
2022-08-20T03:13:55.543Z,1012.97
2022-08-20T03:14:55.876Z,1012.95
2022-08-20T03:15:58.816Z,1012.98
2022-08-20T03:16:56.598Z,1012.92
2022-08-20T03:17:57.089Z,1012.94
2022-08-20T03:18:57.306Z,1012.94
2022-08-20T03:19:57.661Z,1012.95
2022-08-20T03:20:58.020Z,1012.90
2022-08-20T03:21:58.416Z,1012.91
2022-08-20T03:22:58.746Z,1012.89
2022-08-20T03:23:59.114Z,1012.92
2022-08-20T03:24:59.457Z,1012.89
2022-08-20T03:25:59.811Z,1012.92
2022-08-20T03:27:00.176Z,1012.96
2022-08-20T03:28:00.830Z,1012.96
2022-08-20T03:29:00.907Z,1012.95
2022-08-20T03:30:01.260Z,1012.96
2022-08-20T03:31:01.612Z,1012.96
2022-08-20T03:32:04.887Z,1012.94
2022-08-20T03:33:02.366Z,1012.89
2022-08-20T03:34:02.709Z,1012.95
2022-08-20T03:35:03.060Z,1012.95
2022-08-20T03:36:03.426Z,1012.97
2022-08-20T03:37:03.799Z,1012.95
2022-08-20T03:38:04.204Z,1012.96
2022-08-20T03:39:04.308Z,1012.94
2022-08-20T03:40:04.553Z,1012.96
2022-08-20T03:41:04.777Z,1012.98
2022-08-20T03:42:05.055Z,1012.99
2022-08-20T03:43:05.263Z,1012.98
2022-08-20T03:44:05.405Z,1012.93
2022-08-20T03:45:05.568Z,1013.00
2022-08-20T03:46:05.868Z,1012.97
2022-08-20T03:47:06.152Z,1012.97
2022-08-20T03:48:06.402Z,1013.04
2022-08-20T03:49:06.618Z,1013.00
2022-08-20T03:50:06.793Z,1013.09
2022-08-20T03:51:06.958Z,1013.09
2022-08-20T03:52:07.131Z,1013.09
2022-08-20T03:53:07.341Z,1013.14
2022-08-20T03:54:07.596Z,1013.11
2022-08-20T03:55:07.763Z,1013.17
2022-08-20T03:56:08.062Z,1013.20
2022-08-20T03:57:12.747Z,1013.15
2022-08-20T03:58:08.663Z,1013.14
2022-08-20T03:59:08.947Z,1013.18
2022-08-20T04:00:09.230Z,1013.15
2022-08-20T04:01:36.835Z,1013.19
2022-08-20T04:02:09.915Z,1013.17
2022-08-20T04:03:10.131Z,1013.21
2022-08-20T04:04:12.491Z,1013.19
2022-08-20T04:05:10.468Z,1013.20
2022-08-20T04:06:10.750Z,1013.25
2022-08-20T04:07:11.035Z,1013.25
2022-08-20T04:08:11.237Z,1013.24
2022-08-20T04:09:11.652Z,1013.25
2022-08-20T04:10:11.830Z,1013.26
2022-08-20T04:11:12.087Z,1013.27
2022-08-20T04:12:12.267Z,1013.30
2022-08-20T04:13:12.477Z,1013.32
2022-08-20T04:14:17.360Z,1013.31
2022-08-20T04:15:12.931Z,1013.33
2022-08-20T04:16:14.738Z,1013.31
2022-08-20T04:17:13.380Z,1013.33
2022-08-20T04:18:13.587Z,1013.33
2022-08-20T04:19:13.884Z,1013.36
2022-08-20T04:20:14.038Z,1013.40
2022-08-20T04:21:14.220Z,1013.47
2022-08-20T04:22:14.398Z,1013.44
2022-08-20T04:23:14.573Z,1013.46
2022-08-20T04:24:22.600Z,1013.50
2022-08-20T04:25:16.027Z,1013.47
2022-08-20T04:26:15.099Z,1013.52
2022-08-20T04:27:15.286Z,1013.52
2022-08-20T04:28:15.487Z,1013.62
2022-08-20T04:29:15.649Z,1013.57
2022-08-20T04:30:15.848Z,1013.60
2022-08-20T04:31:15.998Z,1013.60
2022-08-20T04:32:17.859Z,1013.62
2022-08-20T04:33:16.373Z,1013.59
2022-08-20T04:34:16.552Z,1013.63
2022-08-20T04:35:16.727Z,1013.62
2022-08-20T04:36:16.912Z,1013.66
2022-08-20T04:37:17.527Z,1013.60
2022-08-20T04:38:17.330Z,1013.60
2022-08-20T04:39:17.442Z,1013.59
2022-08-20T04:40:17.631Z,1013.64
2022-08-20T04:41:21.161Z,1013.62
2022-08-20T04:42:18.057Z,1013.61
2022-08-20T04:43:18.223Z,1013.63
2022-08-20T04:44:18.368Z,1013.61
2022-08-20T04:45:18.569Z,1013.62
2022-08-20T04:46:18.689Z,1013.61
2022-08-20T04:47:18.873Z,1013.62
2022-08-20T04:48:19.132Z,1013.58
2022-08-20T04:49:19.230Z,1013.61
2022-08-20T04:50:19.399Z,1013.62
2022-08-20T04:51:19.592Z,1013.61
2022-08-20T04:52:19.763Z,1013.61
2022-08-20T04:53:25.315Z,1013.65
2022-08-20T04:54:20.117Z,1013.62
2022-08-20T04:55:20.276Z,1013.63
2022-08-20T04:56:20.463Z,1013.66
2022-08-20T04:57:20.640Z,1013.63
2022-08-20T04:58:20.843Z,1013.64
2022-08-20T04:59:20.991Z,1013.61
2022-08-20T05:00:21.192Z,1013.64
2022-08-20T05:01:21.539Z,1013.64
2022-08-20T05:02:21.688Z,1013.68
2022-08-20T05:03:21.890Z,1013.69
2022-08-20T05:04:22.052Z,1013.64
2022-08-20T05:05:22.351Z,1013.69
2022-08-20T05:06:22.560Z,1013.67
2022-08-20T05:07:22.729Z,1013.69
2022-08-20T05:08:22.930Z,1013.65
2022-08-20T05:09:23.080Z,1013.67
2022-08-20T05:10:23.264Z,1013.68
2022-08-20T05:11:34.735Z,1013.69
2022-08-20T05:12:23.643Z,1013.63
2022-08-20T05:13:27.201Z,1013.63
2022-08-20T05:14:24.054Z,1013.61
2022-08-20T05:15:24.244Z,1013.59
2022-08-20T05:16:24.471Z,1013.58
2022-08-20T05:17:24.633Z,1013.61
2022-08-20T05:18:24.839Z,1013.61
2022-08-20T05:19:25.006Z,1013.62
2022-08-20T05:20:25.191Z,1013.65
2022-08-20T05:21:25.385Z,1013.64
2022-08-20T05:22:25.580Z,1013.67
2022-08-20T05:23:25.778Z,1013.66
2022-08-20T05:24:25.929Z,1013.73
2022-08-20T05:25:26.124Z,1013.69
2022-08-20T05:26:26.315Z,1013.70
2022-08-20T05:27:26.491Z,1013.74
2022-08-20T05:28:26.718Z,1013.73
2022-08-20T05:29:26.875Z,1013.68
2022-08-20T05:30:27.070Z,1013.68
2022-08-20T05:31:31.796Z,1013.64
2022-08-20T05:32:27.446Z,1013.60
2022-08-20T05:33:27.654Z,1013.67
2022-08-20T05:34:27.836Z,1013.63
2022-08-20T05:35:28.007Z,1013.64
2022-08-20T05:36:28.206Z,1013.68
2022-08-20T05:37:28.389Z,1013.69
2022-08-20T05:38:28.635Z,1013.72
2022-08-20T05:39:28.746Z,1013.74
2022-08-20T05:40:28.935Z,1013.76
2022-08-20T05:41:30.192Z,1013.74
2022-08-20T05:42:29.316Z,1013.71
2022-08-20T05:43:29.563Z,1013.78
2022-08-20T05:44:29.675Z,1013.79
2022-08-20T05:45:29.859Z,1013.78
2022-08-20T05:46:30.022Z,1013.84
2022-08-20T05:47:30.206Z,1013.76
2022-08-20T05:48:30.412Z,1013.78
2022-08-20T05:49:30.572Z,1013.75
2022-08-20T05:50:30.730Z,1013.78
2022-08-20T05:51:30.920Z,1013.76
2022-08-20T05:52:31.130Z,1013.79
2022-08-20T05:53:31.346Z,1013.78
2022-08-20T05:54:31.497Z,1013.77
2022-08-20T05:55:31.678Z,1013.72
2022-08-20T05:56:31.850Z,1013.72
2022-08-20T05:57:32.043Z,1013.74
2022-08-20T05:58:32.246Z,1013.76
2022-08-20T05:59:32.437Z,1013.74
2022-08-20T06:00:32.631Z,1013.73
2022-08-20T06:01:32.916Z,1013.71
2022-08-20T06:02:33.021Z,1013.76
2022-08-20T06:03:33.218Z,1013.78
2022-08-20T06:04:33.394Z,1013.80
2022-08-20T06:05:33.571Z,1013.81
2022-08-20T06:06:44.487Z,1013.81
2022-08-20T06:07:33.947Z,1013.78
2022-08-20T06:08:34.154Z,1013.82
2022-08-20T06:09:34.338Z,1013.81
2022-08-20T06:10:34.533Z,1013.86
2022-08-20T06:11:37.289Z,1013.80
2022-08-20T06:12:34.916Z,1013.75
2022-08-20T06:13:35.120Z,1013.76
2022-08-20T06:14:35.275Z,1013.81
2022-08-20T06:15:35.482Z,1013.78
2022-08-20T06:16:37.343Z,1013.75
2022-08-20T06:17:39.637Z,1013.79
2022-08-20T06:18:36.062Z,1013.86
2022-08-20T06:19:36.224Z,1013.79
2022-08-20T06:20:36.402Z,1013.82
2022-08-20T06:21:36.623Z,1013.86
2022-08-20T06:22:36.788Z,1013.82
2022-08-20T06:23:54.247Z,1013.78
2022-08-20T06:24:37.175Z,1013.80
2022-08-20T06:25:38.035Z,1013.81
2022-08-20T06:26:37.546Z,1013.80
2022-08-20T06:27:37.717Z,1013.78
2022-08-20T06:28:37.930Z,1013.80
2022-08-20T06:29:38.078Z,1013.80
2022-08-20T06:30:38.282Z,1013.83
2022-08-20T06:31:38.559Z,1013.85
2022-08-20T06:32:38.657Z,1013.77
2022-08-20T06:33:38.865Z,1013.80
2022-08-20T06:34:49.918Z,1013.78
2022-08-20T06:35:39.245Z,1013.76
2022-08-20T06:36:39.431Z,1013.84
2022-08-20T06:37:39.644Z,1013.80
2022-08-20T06:38:39.845Z,1013.81
2022-08-20T06:39:40.085Z,1013.84
2022-08-20T06:40:40.241Z,1013.85
2022-08-20T06:41:40.452Z,1013.78
2022-08-20T06:42:44.467Z,1013.79
2022-08-20T06:43:40.836Z,1013.80
2022-08-20T06:44:40.942Z,1013.82
2022-08-20T06:45:41.156Z,1013.88
2022-08-20T06:46:41.318Z,1013.79
2022-08-20T06:47:41.515Z,1013.81
2022-08-20T06:48:41.734Z,1013.84
2022-08-20T06:49:41.887Z,1013.90
2022-08-20T06:50:47.966Z,1013.88
2022-08-20T06:51:42.262Z,1013.91
2022-08-20T06:52:52.266Z,1013.86
2022-08-20T06:53:42.654Z,1013.90
2022-08-20T06:54:42.837Z,1013.95
2022-08-20T06:55:43.022Z,1013.86
2022-08-20T06:56:43.219Z,1013.90
2022-08-20T06:57:43.410Z,1013.91
2022-08-20T06:58:43.622Z,1013.90
2022-08-20T06:59:43.774Z,1013.90
2022-08-20T07:00:43.983Z,1013.93
2022-08-20T07:01:44.226Z,1013.89
2022-08-20T07:02:44.362Z,1013.92
2022-08-20T07:03:54.678Z,1013.83
2022-08-20T07:04:44.761Z,1013.88
2022-08-20T07:05:44.950Z,1013.90
2022-08-20T07:06:45.139Z,1013.92
2022-08-20T07:07:45.348Z,1013.98
2022-08-20T07:08:45.547Z,1013.98
2022-08-20T07:09:45.743Z,1013.97
2022-08-20T07:10:45.933Z,1014.04
2022-08-20T07:11:46.115Z,1013.97
2022-08-20T07:12:46.303Z,1013.93
2022-08-20T07:13:46.518Z,1013.93
2022-08-20T07:14:46.676Z,1013.96
2022-08-20T07:15:46.875Z,1013.99
2022-08-20T07:16:47.042Z,1013.93
2022-08-20T07:17:47.226Z,1013.96
2022-08-20T07:18:47.430Z,1013.92
2022-08-20T07:19:47.587Z,1013.99
2022-08-20T07:20:47.788Z,1013.93
2022-08-20T07:21:47.977Z,1013.93
2022-08-20T07:22:48.177Z,1013.97
2022-08-20T07:23:48.387Z,1013.97
2022-08-20T07:24:49.218Z,1014.03
2022-08-20T07:25:48.763Z,1014.01
2022-08-20T07:26:48.939Z,1014.04
2022-08-20T07:27:49.123Z,1014.05
2022-08-20T07:28:49.340Z,1014.13
2022-08-20T07:29:49.500Z,1014.07
2022-08-20T07:30:56.529Z,1014.09
2022-08-20T07:31:49.905Z,1014.07
2022-08-20T07:32:50.045Z,1014.02
2022-08-20T07:33:50.668Z,1014.08
2022-08-20T07:34:50.405Z,1014.11
2022-08-20T07:35:50.607Z,1014.17
2022-08-20T07:36:50.803Z,1014.09
2022-08-20T07:37:50.994Z,1014.13
2022-08-20T07:38:51.207Z,1014.11
2022-08-20T07:39:51.409Z,1014.09
2022-08-20T07:40:51.551Z,1014.16
2022-08-20T07:41:56.801Z,1014.15
2022-08-20T07:42:51.980Z,1014.11
2022-08-20T07:43:52.142Z,1014.10
2022-08-20T07:44:52.290Z,1014.12
2022-08-20T07:45:52.476Z,1014.10
2022-08-20T07:46:52.662Z,1014.09
2022-08-20T07:47:52.857Z,1014.14
2022-08-20T07:48:53.059Z,1014.10
2022-08-20T07:49:53.260Z,1014.08
2022-08-20T07:50:53.479Z,1014.11
2022-08-20T07:51:53.655Z,1014.18
2022-08-20T07:52:53.857Z,1014.10
2022-08-20T07:53:54.031Z,1014.07
2022-08-20T07:54:54.172Z,1014.15
2022-08-20T07:55:58.926Z,1014.27
2022-08-20T07:56:54.541Z,1014.19
2022-08-20T07:57:54.714Z,1014.24
2022-08-20T07:58:54.931Z,1014.25
2022-08-20T07:59:55.112Z,1014.30
2022-08-20T08:00:55.367Z,1014.33
2022-08-20T08:01:55.538Z,1014.30
2022-08-20T08:02:55.905Z,1014.27
2022-08-20T08:03:55.950Z,1014.32
2022-08-20T08:04:56.110Z,1014.35
2022-08-20T08:05:56.320Z,1014.33
2022-08-20T08:06:56.533Z,1014.40
2022-08-20T08:07:56.734Z,1014.35
2022-08-20T08:08:56.958Z,1014.42
2022-08-20T08:09:57.162Z,1014.42
2022-08-20T08:10:57.330Z,1014.45
2022-08-20T08:11:57.541Z,1014.42
2022-08-20T08:12:57.901Z,1014.42
2022-08-20T08:13:57.951Z,1014.47
2022-08-20T08:14:58.119Z,1014.48
2022-08-20T08:15:58.348Z,1014.50
2022-08-20T08:16:58.520Z,1014.47
2022-08-20T08:17:58.735Z,1014.48
2022-08-20T08:18:58.953Z,1014.48
2022-08-20T08:19:59.128Z,1014.42
2022-08-20T08:20:59.339Z,1014.46
2022-08-20T08:21:59.550Z,1014.43
2022-08-20T08:22:59.752Z,1014.42
2022-08-20T08:23:59.992Z,1014.39
2022-08-20T08:25:00.159Z,1014.42
2022-08-20T08:26:00.365Z,1014.42
2022-08-20T08:27:00.557Z,1014.42
2022-08-20T08:28:00.736Z,1014.39
2022-08-20T08:29:00.945Z,1014.38
2022-08-20T08:30:01.096Z,1014.39
2022-08-20T08:31:01.283Z,1014.40
2022-08-20T08:32:01.465Z,1014.40
2022-08-20T08:33:01.660Z,1014.44
2022-08-20T08:34:01.878Z,1014.43
2022-08-20T08:35:02.037Z,1014.46
2022-08-20T08:36:02.252Z,1014.52
2022-08-20T08:37:02.455Z,1014.50
2022-08-20T08:38:02.667Z,1014.52
2022-08-20T08:39:02.898Z,1014.48
2022-08-20T08:40:03.097Z,1014.46
2022-08-20T08:41:03.282Z,1014.47
2022-08-20T08:42:03.488Z,1014.49
2022-08-20T08:43:03.680Z,1014.44
2022-08-20T08:44:03.925Z,1014.44
2022-08-20T08:45:04.072Z,1014.48
2022-08-20T08:46:04.263Z,1014.48
2022-08-20T08:47:04.451Z,1014.43
2022-08-20T08:48:04.633Z,1014.43
2022-08-20T08:49:04.848Z,1014.48
2022-08-20T08:50:05.009Z,1014.50
2022-08-20T08:51:05.218Z,1014.47
2022-08-20T08:52:05.419Z,1014.52
2022-08-20T08:53:05.626Z,1014.48
2022-08-20T08:54:07.209Z,1014.48
2022-08-20T08:55:06.047Z,1014.51
2022-08-20T08:56:06.259Z,1014.51
2022-08-20T08:57:13.109Z,1014.54
2022-08-20T08:58:17.195Z,1014.53
2022-08-20T08:59:06.912Z,1014.52
2022-08-20T09:00:07.084Z,1014.59
2022-08-20T09:01:09.821Z,1014.54
2022-08-20T09:02:07.530Z,1014.58
2022-08-20T09:03:07.680Z,1014.55
2022-08-20T09:04:07.939Z,1014.54
2022-08-20T09:05:08.128Z,1014.58
2022-08-20T09:06:08.316Z,1014.62
2022-08-20T09:07:08.506Z,1014.59
2022-08-20T09:08:08.706Z,1014.59
2022-08-20T09:09:08.932Z,1014.60
2022-08-20T09:10:09.119Z,1014.59
2022-08-20T09:11:09.254Z,1014.56
2022-08-20T09:12:09.457Z,1014.60
2022-08-20T09:13:09.652Z,1014.67
2022-08-20T09:14:09.886Z,1014.64
2022-08-20T09:15:10.046Z,1014.62
2022-08-20T09:16:10.235Z,1014.66
2022-08-20T09:17:10.436Z,1014.64
2022-08-20T09:18:10.672Z,1014.69
2022-08-20T09:19:10.856Z,1014.67
2022-08-20T09:20:11.031Z,1014.70
2022-08-20T09:21:11.201Z,1014.78
2022-08-20T09:22:11.402Z,1014.74
2022-08-20T09:23:11.599Z,1014.74
2022-08-20T09:24:11.815Z,1014.75
2022-08-20T09:25:11.970Z,1014.73
2022-08-20T09:26:12.158Z,1014.74
2022-08-20T09:27:12.340Z,1014.76
2022-08-20T09:28:12.556Z,1014.75
2022-08-20T09:29:12.859Z,1014.64
2022-08-20T09:30:12.952Z,1014.66
2022-08-20T09:31:13.165Z,1014.72
2022-08-20T09:32:13.390Z,1014.66
2022-08-20T09:33:13.526Z,1014.68
2022-08-20T09:34:13.732Z,1014.64
2022-08-20T09:35:13.929Z,1014.66
2022-08-20T09:36:31.357Z,1014.64
2022-08-20T09:37:14.342Z,1014.60
2022-08-20T09:38:14.547Z,1014.59
2022-08-20T09:39:14.758Z,1014.60
2022-08-20T09:40:15.010Z,1014.66
2022-08-20T09:41:15.181Z,1014.73
2022-08-20T09:42:15.383Z,1014.72
2022-08-20T09:43:15.568Z,1014.69
2022-08-20T09:44:15.822Z,1014.71
2022-08-20T09:45:15.984Z,1014.70
2022-08-20T09:46:16.205Z,1014.67
2022-08-20T09:47:16.385Z,1014.71
2022-08-20T09:48:16.577Z,1014.78
2022-08-20T09:49:16.836Z,1014.70
2022-08-20T09:50:17.038Z,1014.68
2022-08-20T09:51:17.214Z,1014.71
2022-08-20T09:52:17.391Z,1014.76
2022-08-20T09:53:17.583Z,1014.74
2022-08-20T09:54:17.817Z,1014.63
2022-08-20T09:55:18.053Z,1014.73
2022-08-20T09:56:18.199Z,1014.72
2022-08-20T09:57:18.409Z,1014.72
2022-08-20T09:58:18.630Z,1014.70
2022-08-20T09:59:18.839Z,1014.77
2022-08-20T10:00:19.123Z,1014.74
2022-08-20T10:01:19.325Z,1014.87
2022-08-20T10:02:19.447Z,1014.80
2022-08-20T10:03:19.656Z,1014.82
2022-08-20T10:04:19.873Z,1014.80
2022-08-20T10:05:20.066Z,1014.81
2022-08-20T10:06:20.529Z,1014.79
2022-08-20T10:07:20.482Z,1014.78
2022-08-20T10:08:20.657Z,1014.78
2022-08-20T10:09:20.898Z,1014.75
2022-08-20T10:10:21.027Z,1014.74
2022-08-20T10:11:21.230Z,1014.75
2022-08-20T10:12:21.443Z,1014.77
2022-08-20T10:13:21.655Z,1014.73
2022-08-20T10:14:21.865Z,1014.74
2022-08-20T10:15:22.056Z,1014.73
2022-08-20T10:16:22.266Z,1014.74
2022-08-20T10:17:22.448Z,1014.73
2022-08-20T10:18:22.804Z,1014.77
2022-08-20T10:19:22.852Z,1014.80
2022-08-20T10:20:23.065Z,1014.76
2022-08-20T10:21:23.260Z,1014.79
2022-08-20T10:22:23.450Z,1014.79
2022-08-20T10:23:23.667Z,1014.83
2022-08-20T10:24:23.890Z,1014.76
2022-08-20T10:25:24.076Z,1014.78
2022-08-20T10:26:24.325Z,1014.84
2022-08-20T10:27:24.462Z,1014.81
2022-08-20T10:28:24.664Z,1014.78
2022-08-20T10:29:24.900Z,1014.78
2022-08-20T10:30:25.075Z,1014.77
2022-08-20T10:31:25.271Z,1014.81
2022-08-20T10:32:25.459Z,1014.92
2022-08-20T10:33:25.670Z,1014.87
2022-08-20T10:34:25.879Z,1014.92
2022-08-20T10:35:26.064Z,1014.92
2022-08-20T10:36:26.261Z,1014.85
2022-08-20T10:37:26.448Z,1014.85
2022-08-20T10:38:26.631Z,1014.85
2022-08-20T10:39:26.869Z,1014.80
2022-08-20T10:40:27.024Z,1014.88
2022-08-20T10:41:27.218Z,1014.79
2022-08-20T10:42:27.393Z,1014.79
2022-08-20T10:43:27.578Z,1014.78
2022-08-20T10:44:27.834Z,1014.80
2022-08-20T10:45:27.982Z,1014.81
2022-08-20T10:46:28.217Z,1014.98
2022-08-20T10:47:28.388Z,1014.84
2022-08-20T10:48:28.574Z,1014.89
2022-08-20T10:49:28.807Z,1014.90
2022-08-20T10:50:30.374Z,1014.87
2022-08-20T10:51:32.371Z,1014.90
2022-08-20T10:52:29.328Z,1014.92
2022-08-20T10:53:29.535Z,1014.90
2022-08-20T10:54:29.743Z,1014.98
2022-08-20T10:55:29.931Z,1014.92
2022-08-20T10:56:30.132Z,1014.92
2022-08-20T10:57:30.308Z,1014.93
2022-08-20T10:58:39.255Z,1014.99
2022-08-20T10:59:30.754Z,1014.94
2022-08-20T11:00:30.984Z,1014.96
2022-08-20T11:01:36.148Z,1014.92
2022-08-20T11:02:31.352Z,1015.02
2022-08-20T11:03:31.552Z,1014.95
2022-08-20T11:04:31.748Z,1014.96
2022-08-20T11:05:31.939Z,1014.95
2022-08-20T11:06:32.137Z,1014.99
2022-08-20T11:07:50.678Z,1015.03
2022-08-20T11:08:34.191Z,1014.97
2022-08-20T11:09:32.734Z,1015.11
2022-08-20T11:10:32.888Z,1015.09
2022-08-20T11:11:33.074Z,1015.00
2022-08-20T11:12:33.269Z,1015.01
2022-08-20T11:13:33.441Z,1015.04
2022-08-20T11:14:33.674Z,1015.00
2022-08-20T11:15:33.862Z,1015.05
2022-08-20T11:16:34.046Z,1015.05
2022-08-20T11:17:34.248Z,1015.05
2022-08-20T11:18:34.434Z,1015.13
2022-08-20T11:19:34.647Z,1015.09
2022-08-20T11:20:34.854Z,1015.11
2022-08-20T11:21:35.047Z,1015.15
2022-08-20T11:22:35.228Z,1015.16
2022-08-20T11:23:35.480Z,1015.15
2022-08-20T11:24:35.621Z,1015.15
2022-08-20T11:25:35.815Z,1015.15
2022-08-20T11:26:36.070Z,1015.18
2022-08-20T11:27:36.242Z,1015.11
2022-08-20T11:28:36.465Z,1015.11
2022-08-20T11:29:36.665Z,1015.09
2022-08-20T11:30:36.865Z,1015.17
2022-08-20T11:31:36.980Z,1015.13
2022-08-20T11:32:37.194Z,1015.19
2022-08-20T11:33:37.413Z,1015.11
2022-08-20T11:34:37.628Z,1015.16
2022-08-20T11:35:43.284Z,1015.13
2022-08-20T11:36:38.035Z,1015.17
2022-08-20T11:37:38.230Z,1015.14
2022-08-20T11:38:38.425Z,1015.11
2022-08-20T11:39:41.844Z,1015.08
2022-08-20T11:40:38.786Z,1015.15
2022-08-20T11:41:38.980Z,1015.18
2022-08-20T11:42:58.387Z,1015.14
2022-08-20T11:43:39.382Z,1015.12
2022-08-20T11:44:39.680Z,1015.25
2022-08-20T11:45:39.800Z,1015.17
2022-08-20T11:46:39.994Z,1015.28
2022-08-20T11:47:40.194Z,1015.24
2022-08-20T11:48:40.346Z,1015.24
2022-08-20T11:49:40.566Z,1015.25
2022-08-20T11:50:40.717Z,1015.25
2022-08-20T11:51:49.627Z,1015.25
2022-08-20T11:52:41.108Z,1015.15
2022-08-20T11:53:41.308Z,1015.18
2022-08-20T11:54:41.505Z,1015.19
2022-08-20T11:55:41.701Z,1015.23
2022-08-20T11:56:41.899Z,1015.20
2022-08-20T11:57:42.078Z,1015.13
2022-08-20T11:58:42.292Z,1015.09
2022-08-20T11:59:42.490Z,1015.14
2022-08-20T12:00:42.704Z,1015.14
2022-08-20T12:02:02.293Z,1015.12
2022-08-20T12:02:43.180Z,1015.11
2022-08-20T12:03:43.316Z,1015.10
2022-08-20T12:04:43.529Z,1015.07
2022-08-20T12:05:43.717Z,1015.06
2022-08-20T12:06:43.894Z,1015.06
2022-08-20T12:07:44.092Z,1015.06
2022-08-20T12:08:44.306Z,1015.09
2022-08-20T12:09:50.774Z,1014.99